createdAt,value
2022-11-09T00:03:06.398Z,93.48
2022-11-09T00:04:07.378Z,93.69
2022-11-09T00:05:07.335Z,93.99
2022-11-09T00:06:07.354Z,94.24
2022-11-09T00:07:07.367Z,94.14
2022-11-09T00:08:07.306Z,94.45
2022-11-09T00:09:08.357Z,94.55
2022-11-09T00:10:07.344Z,94.75
2022-11-09T00:11:07.323Z,94.85
2022-11-09T00:12:07.296Z,94.85
2022-11-09T00:13:07.252Z,95.16
2022-11-09T00:14:07.235Z,95.36
2022-11-09T00:15:07.227Z,95.77
2022-11-09T00:16:07.244Z,95.67
2022-11-09T00:17:07.218Z,95.97
2022-11-09T00:18:07.230Z,96.89
2022-11-09T00:19:07.220Z,97.00
2022-11-09T00:20:07.177Z,96.89
2022-11-09T00:21:07.216Z,97.09
2022-11-09T00:22:07.174Z,97.30
2022-11-09T00:23:07.142Z,97.81
2022-11-09T00:24:07.150Z,97.91
2022-11-09T00:25:07.218Z,97.56
2022-11-09T00:26:07.135Z,97.46
2022-11-09T00:27:07.102Z,97.71
2022-11-09T00:28:07.149Z,98.02
2022-11-09T00:29:07.116Z,98.32
2022-11-09T00:30:07.091Z,98.52
2022-11-09T00:31:07.067Z,98.52
2022-11-09T00:32:07.067Z,98.32
2022-11-09T00:33:07.087Z,98.32
2022-11-09T00:34:07.024Z,98.89
2022-11-09T00:35:07.017Z,98.58
2022-11-09T00:36:07.065Z,98.27
2022-11-09T00:37:07.010Z,98.48
2022-11-09T00:38:07.048Z,98.79
2022-11-09T00:39:06.978Z,98.68
2022-11-09T00:40:07.056Z,98.68
2022-11-09T00:41:07.005Z,99.09
2022-11-09T00:42:07.004Z,99.09
2022-11-09T00:43:06.962Z,98.89
2022-11-09T00:44:06.952Z,98.89
2022-11-09T00:45:06.970Z,99.19
2022-11-09T00:46:06.906Z,99.19
2022-11-09T00:47:06.954Z,99.40
2022-11-09T00:48:06.933Z,99.19
2022-11-09T00:49:06.905Z,98.99
2022-11-09T00:50:06.871Z,99.19
2022-11-09T00:51:06.871Z,99.09
2022-11-09T00:52:06.849Z,99.40
2022-11-09T00:53:06.848Z,99.40
2022-11-09T00:54:06.852Z,99.60
2022-11-09T00:55:06.849Z,99.91
2022-11-09T00:56:06.845Z,99.70
2022-11-09T00:57:06.835Z,99.70
2022-11-09T00:58:06.801Z,99.40
2022-11-09T00:59:06.807Z,99.60
2022-11-09T01:00:06.823Z,99.91
2022-11-09T01:01:06.823Z,99.60
2022-11-09T01:02:06.748Z,99.60
2022-11-09T01:03:06.784Z,99.99
2022-11-09T01:04:06.744Z,99.99
2022-11-09T01:05:06.732Z,99.99
2022-11-09T01:06:06.780Z,99.99
2022-11-09T01:07:06.850Z,99.99
2022-11-09T01:08:06.703Z,99.99
2022-11-09T01:09:06.745Z,99.99
2022-11-09T01:10:06.678Z,99.99
2022-11-09T01:11:06.705Z,99.99
2022-11-09T01:12:06.645Z,99.99
2022-11-09T01:13:06.639Z,99.99
2022-11-09T01:14:06.635Z,99.99
2022-11-09T01:15:06.656Z,99.99
2022-11-09T01:16:06.660Z,99.99
2022-11-09T01:17:06.653Z,99.99
2022-11-09T01:18:06.536Z,99.99
2022-11-09T01:19:06.610Z,99.99
2022-11-09T01:20:06.588Z,99.99
2022-11-09T01:21:06.603Z,99.99
2022-11-09T01:22:06.606Z,99.99
2022-11-09T01:23:06.534Z,99.99
2022-11-09T01:24:06.526Z,99.99
2022-11-09T01:25:06.527Z,99.99
2022-11-09T01:26:06.560Z,99.99
2022-11-09T01:27:06.502Z,99.99
2022-11-09T01:28:06.484Z,99.99
2022-11-09T01:29:06.476Z,99.99
2022-11-09T01:30:06.473Z,99.99
2022-11-09T01:31:06.468Z,99.99
2022-11-09T01:32:06.519Z,99.99
2022-11-09T01:33:06.453Z,99.99
2022-11-09T01:34:06.437Z,99.99
2022-11-09T01:35:06.423Z,99.99
2022-11-09T01:36:06.405Z,99.99
2022-11-09T01:37:06.409Z,99.99
2022-11-09T01:38:06.668Z,99.99
2022-11-09T01:39:06.428Z,99.99
2022-11-09T01:40:06.371Z,99.99
2022-11-09T01:41:06.365Z,99.99
2022-11-09T01:42:06.410Z,99.99
2022-11-09T01:43:06.363Z,99.99
2022-11-09T01:44:06.345Z,99.99
2022-11-09T01:45:06.365Z,99.99
2022-11-09T01:46:06.298Z,99.99
2022-11-09T01:47:06.294Z,99.99
2022-11-09T01:48:06.343Z,99.99
2022-11-09T01:49:06.273Z,99.99
2022-11-09T01:50:06.266Z,99.99
2022-11-09T01:51:06.255Z,99.99
2022-11-09T01:52:06.263Z,99.99
2022-11-09T01:53:06.239Z,99.99
2022-11-09T01:54:06.264Z,99.99
2022-11-09T01:55:06.239Z,99.99
2022-11-09T01:56:06.195Z,99.99
2022-11-09T01:57:06.197Z,99.99
2022-11-09T01:58:06.202Z,99.99
2022-11-09T01:59:06.226Z,99.99
2022-11-09T02:00:06.157Z,99.99
2022-11-09T02:01:06.192Z,99.99
2022-11-09T02:02:06.153Z,99.99
2022-11-09T02:03:06.160Z,99.99
2022-11-09T02:04:06.131Z,99.99
2022-11-09T02:05:06.160Z,99.99
2022-11-09T02:06:06.167Z,99.99
2022-11-09T02:07:06.149Z,99.99
2022-11-09T02:08:06.084Z,99.99
2022-11-09T02:09:06.099Z,99.99
2022-11-09T02:10:06.079Z,99.99
2022-11-09T02:11:06.080Z,99.99
2022-11-09T02:12:06.037Z,99.99
2022-11-09T02:13:06.067Z,99.99
2022-11-09T02:14:06.062Z,99.99
2022-11-09T02:15:06.037Z,99.99
2022-11-09T02:16:06.833Z,99.99
2022-11-09T02:17:06.027Z,99.99
2022-11-09T02:18:06.897Z,99.99
2022-11-09T02:19:05.992Z,99.99
2022-11-09T02:20:06.007Z,99.99
2022-11-09T02:21:05.960Z,99.99
2022-11-09T02:22:05.953Z,99.99
2022-11-09T02:23:05.949Z,99.99
2022-11-09T02:24:05.919Z,99.99
2022-11-09T02:25:05.949Z,99.99
2022-11-09T02:26:05.938Z,99.99
2022-11-09T02:27:05.912Z,99.99
2022-11-09T02:28:05.898Z,99.99
2022-11-09T02:29:05.871Z,99.99
2022-11-09T02:30:05.875Z,99.99
2022-11-09T02:31:05.905Z,99.99
2022-11-09T02:32:05.864Z,99.99
2022-11-09T02:33:05.848Z,99.99
2022-11-09T02:34:05.826Z,99.99
2022-11-09T02:35:05.818Z,99.99
2022-11-09T02:36:06.363Z,99.99
2022-11-09T02:37:05.810Z,99.99
2022-11-09T02:38:05.771Z,99.99
2022-11-09T02:39:05.792Z,99.99
2022-11-09T02:40:05.763Z,99.99
2022-11-09T02:41:05.783Z,99.99
2022-11-09T02:42:09.884Z,99.99
2022-11-09T02:43:05.757Z,99.99
2022-11-09T02:44:05.726Z,99.99
2022-11-09T02:45:05.743Z,99.99
2022-11-09T02:46:05.721Z,99.99
2022-11-09T02:47:05.748Z,99.99
2022-11-09T02:48:05.683Z,99.99
2022-11-09T02:49:05.672Z,99.99
2022-11-09T02:50:05.662Z,99.99
2022-11-09T02:51:07.386Z,99.99
2022-11-09T02:52:05.686Z,99.99
2022-11-09T02:53:05.632Z,99.99
2022-11-09T02:54:06.338Z,99.99
2022-11-09T02:55:05.629Z,99.99
2022-11-09T02:56:05.602Z,99.99
2022-11-09T02:57:05.629Z,99.99
2022-11-09T02:58:05.587Z,99.99
2022-11-09T02:59:05.623Z,99.99
2022-11-09T03:00:05.582Z,99.99
2022-11-09T03:01:05.595Z,99.99
2022-11-09T03:02:05.569Z,99.99
2022-11-09T03:03:05.546Z,99.99
2022-11-09T03:04:05.542Z,99.99
2022-11-09T03:05:05.517Z,99.99
2022-11-09T03:06:05.540Z,99.99
2022-11-09T03:07:05.537Z,99.99
2022-11-09T03:08:05.532Z,99.99
2022-11-09T03:09:05.477Z,99.99
2022-11-09T03:10:05.450Z,99.99
2022-11-09T03:11:05.451Z,99.99
2022-11-09T03:12:05.518Z,99.99
2022-11-09T03:13:05.457Z,99.99
2022-11-09T03:14:05.420Z,99.99
2022-11-09T03:15:05.421Z,99.99
2022-11-09T03:16:05.420Z,99.99
2022-11-09T03:17:05.423Z,99.99
2022-11-09T03:18:05.470Z,99.99
2022-11-09T03:19:05.404Z,99.99
2022-11-09T03:20:05.365Z,99.99
2022-11-09T03:21:05.374Z,99.99
2022-11-09T03:22:05.332Z,99.99
2022-11-09T03:23:05.330Z,99.99
2022-11-09T03:24:05.347Z,99.99
2022-11-09T03:25:05.302Z,99.99
2022-11-09T03:26:05.307Z,99.99
2022-11-09T03:27:05.298Z,99.99
2022-11-09T03:28:05.278Z,99.99
2022-11-09T03:29:05.233Z,99.99
2022-11-09T03:30:05.282Z,99.99
2022-11-09T03:31:05.275Z,99.99
2022-11-09T03:32:05.241Z,99.99
2022-11-09T03:33:05.278Z,99.99
2022-11-09T03:34:05.240Z,99.99
2022-11-09T03:35:05.235Z,99.99
2022-11-09T03:36:05.199Z,99.99
2022-11-09T03:37:05.188Z,99.99
2022-11-09T03:38:05.283Z,99.99
2022-11-09T03:39:05.226Z,99.99
2022-11-09T03:40:05.178Z,99.99
2022-11-09T03:41:05.147Z,99.99
2022-11-09T03:42:05.189Z,99.99
2022-11-09T03:43:05.222Z,99.99
2022-11-09T03:44:05.157Z,99.99
2022-11-09T03:45:05.122Z,99.87
2022-11-09T03:46:05.112Z,99.66
2022-11-09T03:47:05.148Z,99.36
2022-11-09T03:48:05.122Z,99.66
2022-11-09T03:49:05.106Z,99.66
2022-11-09T03:50:05.850Z,99.56
2022-11-09T03:51:05.082Z,99.26
2022-11-09T03:52:05.038Z,99.05
2022-11-09T03:53:05.026Z,99.16
2022-11-09T03:54:05.073Z,99.16
2022-11-09T03:55:05.051Z,98.91
2022-11-09T03:56:04.994Z,99.11
2022-11-09T03:57:05.010Z,99.31
2022-11-09T03:58:05.049Z,99.21
2022-11-09T03:59:05.012Z,99.21
2022-11-09T04:00:04.975Z,99.21
2022-11-09T04:01:04.981Z,99.01
2022-11-09T04:02:05.073Z,98.80
2022-11-09T04:03:04.885Z,98.91
2022-11-09T04:04:04.954Z,99.01
2022-11-09T04:05:04.933Z,98.91
2022-11-09T04:06:04.907Z,99.21
2022-11-09T04:07:05.035Z,99.11
2022-11-09T04:08:04.920Z,99.11
2022-11-09T04:09:04.906Z,99.21
2022-11-09T04:10:04.875Z,99.01
2022-11-09T04:11:04.897Z,98.80
2022-11-09T04:12:04.898Z,98.80
2022-11-09T04:13:04.823Z,98.80
2022-11-09T04:14:04.845Z,98.80
2022-11-09T04:15:04.838Z,98.60
2022-11-09T04:16:05.348Z,98.70
2022-11-09T04:17:04.824Z,99.01
2022-11-09T04:18:04.799Z,98.91
2022-11-09T04:19:04.761Z,98.91
2022-11-09T04:20:04.765Z,98.80
2022-11-09T04:21:04.776Z,98.80
2022-11-09T04:22:04.776Z,98.50
2022-11-09T04:23:04.778Z,98.70
2022-11-09T04:24:04.785Z,98.70
2022-11-09T04:25:04.733Z,98.80
2022-11-09T04:26:04.697Z,98.60
2022-11-09T04:27:04.717Z,98.80
2022-11-09T04:28:04.702Z,98.80
2022-11-09T04:29:04.707Z,98.70
2022-11-09T04:30:04.682Z,98.80
2022-11-09T04:31:04.654Z,98.60
2022-11-09T04:32:04.712Z,98.80
2022-11-09T04:33:04.621Z,98.91
2022-11-09T04:34:04.626Z,99.11
2022-11-09T04:35:04.640Z,99.21
2022-11-09T04:36:04.652Z,99.01
2022-11-09T04:37:04.639Z,98.80
2022-11-09T04:38:04.572Z,99.01
2022-11-09T04:39:04.510Z,99.01
2022-11-09T04:40:04.555Z,98.60
2022-11-09T04:41:04.550Z,99.01
2022-11-09T04:42:04.545Z,98.50
2022-11-09T04:43:04.546Z,98.80
2022-11-09T04:44:04.526Z,99.01
2022-11-09T04:45:04.534Z,99.11
2022-11-09T04:46:04.556Z,99.11
2022-11-09T04:47:04.485Z,99.31
2022-11-09T04:48:04.557Z,99.01
2022-11-09T04:49:04.472Z,99.21
2022-11-09T04:50:04.470Z,99.21
2022-11-09T04:51:04.477Z,98.91
2022-11-09T04:52:04.473Z,98.70
2022-11-09T04:53:07.765Z,98.60
2022-11-09T04:54:04.419Z,98.60
2022-11-09T04:55:04.453Z,98.39
2022-11-09T04:56:04.419Z,98.50
2022-11-09T04:57:04.403Z,98.50
2022-11-09T04:58:04.381Z,98.50
2022-11-09T04:59:04.436Z,98.50
2022-11-09T05:00:04.371Z,98.50
2022-11-09T05:01:04.344Z,98.50
2022-11-09T05:02:04.399Z,98.60
2022-11-09T05:03:04.345Z,98.60
2022-11-09T05:04:04.444Z,98.80
2022-11-09T05:05:04.308Z,98.80
2022-11-09T05:06:04.358Z,98.70
2022-11-09T05:07:04.357Z,98.60
2022-11-09T05:08:04.320Z,98.70
2022-11-09T05:09:04.275Z,98.70
2022-11-09T05:10:04.312Z,99.11
2022-11-09T05:11:04.283Z,98.91
2022-11-09T05:12:04.247Z,98.91
2022-11-09T05:13:04.257Z,98.70
2022-11-09T05:14:04.214Z,98.60
2022-11-09T05:15:04.245Z,98.80
2022-11-09T05:16:04.224Z,98.65
2022-11-09T05:17:04.182Z,98.75
2022-11-09T05:18:04.191Z,98.91
2022-11-09T05:19:04.199Z,99.05
2022-11-09T05:20:04.180Z,99.16
2022-11-09T05:21:04.199Z,99.16
2022-11-09T05:22:04.927Z,98.95
2022-11-09T05:23:04.197Z,99.11
2022-11-09T05:24:04.210Z,99.16
2022-11-09T05:25:04.211Z,99.01
2022-11-09T05:26:04.135Z,98.91
2022-11-09T05:27:04.158Z,98.70
2022-11-09T05:28:04.127Z,98.60
2022-11-09T05:29:04.064Z,98.60
2022-11-09T05:30:04.116Z,98.39
2022-11-09T05:31:04.099Z,98.50
2022-11-09T05:32:04.061Z,98.39
2022-11-09T05:33:04.013Z,98.50
2022-11-09T05:34:04.049Z,98.39
2022-11-09T05:35:04.055Z,98.30
2022-11-09T05:36:04.050Z,98.30
2022-11-09T05:37:04.000Z,98.39
2022-11-09T05:38:04.010Z,98.24
2022-11-09T05:39:04.018Z,98.34
2022-11-09T05:40:03.972Z,98.54
2022-11-09T05:41:04.015Z,98.54
2022-11-09T05:42:03.959Z,98.44
2022-11-09T05:43:03.948Z,98.60
2022-11-09T05:44:03.946Z,98.65
2022-11-09T05:45:21.294Z,98.95
2022-11-09T05:46:06.820Z,98.85
2022-11-09T05:47:03.928Z,98.95
2022-11-09T05:48:04.154Z,98.95
2022-11-09T05:49:03.842Z,99.36
2022-11-09T05:50:03.918Z,99.26
2022-11-09T05:51:03.874Z,99.26
2022-11-09T05:52:03.906Z,98.95
2022-11-09T05:53:03.803Z,99.16
2022-11-09T05:54:03.828Z,99.46
2022-11-09T05:55:03.770Z,99.16
2022-11-09T05:56:03.841Z,99.26
2022-11-09T05:57:03.820Z,99.16
2022-11-09T05:58:03.726Z,99.26
2022-11-09T05:59:03.751Z,99.05
2022-11-09T06:00:07.313Z,99.05
2022-11-09T06:01:03.762Z,99.16
2022-11-09T06:02:03.759Z,99.26
2022-11-09T06:03:03.748Z,99.16
2022-11-09T06:04:03.744Z,99.36
2022-11-09T06:05:03.794Z,99.41
2022-11-09T06:06:08.109Z,99.21
2022-11-09T06:07:04.059Z,98.80
2022-11-09T06:08:03.672Z,98.91
2022-11-09T06:09:03.677Z,99.05
2022-11-09T06:10:03.610Z,98.75
2022-11-09T06:11:03.630Z,99.26
2022-11-09T06:12:03.626Z,99.26
2022-11-09T06:13:03.711Z,99.46
2022-11-09T06:14:03.650Z,99.36
2022-11-09T06:15:03.642Z,98.85
2022-11-09T06:16:03.624Z,99.05
2022-11-09T06:17:03.722Z,99.05
2022-11-09T06:18:03.603Z,99.26
2022-11-09T06:19:03.642Z,99.36
2022-11-09T06:20:03.587Z,99.46
2022-11-09T06:21:03.560Z,99.36
2022-11-09T06:22:03.551Z,99.46
2022-11-09T06:23:04.476Z,99.56
2022-11-09T06:24:03.524Z,99.36
2022-11-09T06:25:03.479Z,99.56
2022-11-09T06:26:03.471Z,99.46
2022-11-09T06:27:03.481Z,99.77
2022-11-09T06:28:03.445Z,99.56
2022-11-09T06:29:03.404Z,99.26
2022-11-09T06:30:03.436Z,98.95
2022-11-09T06:31:03.411Z,99.26
2022-11-09T06:32:03.401Z,99.26
2022-11-09T06:33:03.371Z,99.56
2022-11-09T06:34:03.389Z,99.56
2022-11-09T06:35:03.412Z,99.36
2022-11-09T06:36:03.387Z,99.16
2022-11-09T06:37:03.356Z,99.36
2022-11-09T06:38:03.338Z,99.66
2022-11-09T06:39:03.357Z,99.66
2022-11-09T06:40:03.347Z,99.46
2022-11-09T06:41:03.330Z,99.56
2022-11-09T06:42:03.378Z,99.36
2022-11-09T06:43:03.270Z,99.01
2022-11-09T06:44:03.301Z,98.70
2022-11-09T06:45:03.247Z,99.01
2022-11-09T06:46:03.262Z,98.91
2022-11-09T06:47:03.267Z,98.91
2022-11-09T06:48:03.250Z,98.60
2022-11-09T06:49:03.251Z,98.50
2022-11-09T06:50:03.212Z,98.91
2022-11-09T06:51:03.227Z,98.70
2022-11-09T06:52:03.222Z,98.60
2022-11-09T06:53:03.180Z,98.60
2022-11-09T06:54:03.193Z,98.70
2022-11-09T06:55:03.175Z,98.39
2022-11-09T06:56:03.209Z,98.30
2022-11-09T06:57:03.167Z,98.30
2022-11-09T06:58:03.159Z,98.60
2022-11-09T06:59:03.125Z,98.80
2022-11-09T07:00:03.140Z,98.91
2022-11-09T07:01:03.219Z,98.50
2022-11-09T07:02:03.143Z,98.70
2022-11-09T07:03:03.099Z,98.70
2022-11-09T07:04:03.078Z,99.01
2022-11-09T07:05:03.106Z,98.70
2022-11-09T07:06:03.119Z,98.19
2022-11-09T07:07:03.069Z,97.89
2022-11-09T07:08:03.032Z,97.78
2022-11-09T07:09:03.035Z,97.99
2022-11-09T07:10:02.996Z,97.89
2022-11-09T07:11:03.950Z,97.78
2022-11-09T07:12:03.051Z,97.99
2022-11-09T07:13:03.010Z,97.84
2022-11-09T07:14:03.006Z,97.58
2022-11-09T07:15:02.980Z,97.53
2022-11-09T07:16:02.963Z,97.74
2022-11-09T07:17:03.029Z,97.74
2022-11-09T07:18:02.963Z,97.33
2022-11-09T07:19:02.949Z,97.03
2022-11-09T07:20:02.982Z,97.13
2022-11-09T07:21:02.925Z,97.13
2022-11-09T07:22:02.895Z,97.33
2022-11-09T07:23:02.903Z,97.74
2022-11-09T07:24:02.899Z,98.14
2022-11-09T07:25:02.845Z,98.35
2022-11-09T07:26:02.873Z,97.94
2022-11-09T07:27:02.828Z,97.33
2022-11-09T07:28:02.823Z,96.92
2022-11-09T07:29:02.836Z,97.33
2022-11-09T07:30:02.797Z,97.44
2022-11-09T07:31:02.831Z,97.44
2022-11-09T07:32:02.808Z,97.23
2022-11-09T07:33:09.257Z,96.52
2022-11-09T07:34:02.795Z,96.31
2022-11-09T07:35:02.854Z,96.92
2022-11-09T07:36:02.811Z,96.92
2022-11-09T07:37:02.731Z,96.72
2022-11-09T07:38:02.766Z,96.31
2022-11-09T07:39:02.758Z,96.92
2022-11-09T07:40:02.738Z,97.03
2022-11-09T07:41:02.706Z,96.72
2022-11-09T07:42:02.702Z,95.81
2022-11-09T07:43:02.730Z,96.22
2022-11-09T07:44:02.715Z,96.77
2022-11-09T07:45:02.659Z,96.36
2022-11-09T07:46:03.432Z,96.97
2022-11-09T07:47:02.672Z,96.77
2022-11-09T07:48:02.661Z,97.17
2022-11-09T07:49:02.658Z,97.48
2022-11-09T07:50:02.628Z,97.28
2022-11-09T07:51:02.642Z,97.17
2022-11-09T07:52:02.617Z,97.13
2022-11-09T07:53:02.576Z,96.77
2022-11-09T07:54:03.467Z,96.77
2022-11-09T07:55:02.571Z,97.07
2022-11-09T07:56:02.600Z,97.07
2022-11-09T07:57:03.493Z,97.07
2022-11-09T07:58:02.565Z,96.52
2022-11-09T07:59:02.528Z,96.72
2022-11-09T08:00:02.536Z,96.77
2022-11-09T08:01:02.508Z,96.52
2022-11-09T08:02:02.564Z,96.77
2022-11-09T08:03:02.498Z,96.42
2022-11-09T08:04:02.467Z,96.56
2022-11-09T08:05:02.459Z,96.87
2022-11-09T08:06:02.448Z,96.87
2022-11-09T08:07:02.527Z,96.87
2022-11-09T08:08:02.498Z,97.07
2022-11-09T08:09:02.458Z,97.17
2022-11-09T08:10:02.414Z,97.17
2022-11-09T08:11:02.520Z,97.28
2022-11-09T08:12:02.411Z,97.13
2022-11-09T08:13:02.428Z,97.03
2022-11-09T08:14:02.962Z,97.03
2022-11-09T08:15:02.946Z,96.62
2022-11-09T08:16:02.435Z,96.62
2022-11-09T08:17:02.353Z,96.72
2022-11-09T08:18:02.345Z,96.72
2022-11-09T08:19:02.326Z,96.31
2022-11-09T08:20:02.325Z,96.22
2022-11-09T08:21:02.339Z,96.22
2022-11-09T08:22:02.363Z,96.22
2022-11-09T08:23:04.626Z,95.81
2022-11-09T08:24:02.305Z,96.22
2022-11-09T08:25:02.248Z,95.81
2022-11-09T08:26:02.256Z,95.81
2022-11-09T08:27:02.221Z,96.01
2022-11-09T08:28:02.381Z,96.31
2022-11-09T08:29:02.282Z,95.91
2022-11-09T08:30:02.367Z,96.01
2022-11-09T08:31:02.408Z,96.11
2022-11-09T08:32:02.458Z,95.91
2022-11-09T08:33:02.487Z,96.22
2022-11-09T08:34:02.255Z,96.22
2022-11-09T08:35:03.096Z,96.31
2022-11-09T08:36:02.368Z,96.31
2022-11-09T08:37:02.331Z,95.70
2022-11-09T08:38:04.089Z,95.81
2022-11-09T08:39:02.268Z,96.01
2022-11-09T08:40:02.358Z,95.81
2022-11-09T08:41:02.467Z,95.66
2022-11-09T08:42:02.384Z,95.61
2022-11-09T08:43:02.225Z,95.81
2022-11-09T08:44:02.153Z,95.70
2022-11-09T08:45:02.240Z,96.01
2022-11-09T08:46:02.165Z,95.91
2022-11-09T08:47:02.115Z,96.01
2022-11-09T08:48:02.450Z,95.70
2022-11-09T08:49:02.011Z,95.36
2022-11-09T08:50:02.017Z,95.25
2022-11-09T08:51:02.016Z,95.46
2022-11-09T08:52:01.976Z,94.95
2022-11-09T08:53:01.943Z,94.95
2022-11-09T08:54:01.952Z,94.64
2022-11-09T08:55:01.954Z,94.64
2022-11-09T08:56:02.016Z,94.54
2022-11-09T08:57:02.003Z,94.70
2022-11-09T08:58:01.932Z,94.60
2022-11-09T08:59:01.947Z,94.40
2022-11-09T09:00:01.953Z,93.89
2022-11-09T09:01:01.889Z,93.68
2022-11-09T09:02:01.950Z,93.28
2022-11-09T09:03:01.945Z,93.38
2022-11-09T09:04:01.855Z,93.84
2022-11-09T09:05:01.920Z,93.44
2022-11-09T09:06:01.983Z,93.64
2022-11-09T09:07:01.976Z,93.24
2022-11-09T09:08:01.858Z,92.79
2022-11-09T09:09:01.875Z,92.58
2022-11-09T09:10:01.855Z,92.28
2022-11-09T09:11:02.478Z,91.97
2022-11-09T09:12:01.762Z,91.63
2022-11-09T09:13:01.763Z,91.12
2022-11-09T09:14:03.510Z,90.92
2022-11-09T09:15:01.834Z,90.81
2022-11-09T09:16:01.746Z,90.71
2022-11-09T09:17:01.779Z,90.71
2022-11-09T09:18:01.866Z,90.81
2022-11-09T09:19:01.698Z,91.22
2022-11-09T09:20:01.827Z,90.92
2022-11-09T09:21:01.716Z,90.92
2022-11-09T09:22:01.671Z,90.41
2022-11-09T09:23:01.691Z,90.41
2022-11-09T09:24:01.647Z,90.11
2022-11-09T09:25:01.674Z,89.80
2022-11-09T09:26:01.689Z,89.80
2022-11-09T09:27:02.431Z,89.65
2022-11-09T09:28:01.593Z,89.65
2022-11-09T09:29:02.375Z,89.86
2022-11-09T09:30:01.576Z,89.35
2022-11-09T09:31:01.668Z,89.04
2022-11-09T09:32:02.506Z,89.45
2022-11-09T09:33:01.620Z,88.99
2022-11-09T09:34:01.609Z,89.29
2022-11-09T09:35:01.642Z,89.55
2022-11-09T09:36:01.863Z,89.70
2022-11-09T09:37:01.556Z,89.55
2022-11-09T09:38:01.583Z,89.35
2022-11-09T09:39:01.600Z,89.04
2022-11-09T09:40:01.615Z,89.04
2022-11-09T09:41:01.469Z,88.84
2022-11-09T09:42:01.551Z,88.75
2022-11-09T09:43:01.456Z,89.04
2022-11-09T09:44:01.438Z,89.25
2022-11-09T09:45:01.478Z,88.84
2022-11-09T09:46:01.422Z,88.75
2022-11-09T09:47:01.476Z,88.34
2022-11-09T09:48:01.450Z,88.44
2022-11-09T09:49:01.443Z,88.34
2022-11-09T09:50:01.630Z,88.64
2022-11-09T09:51:01.564Z,88.54
2022-11-09T09:52:01.420Z,88.44
2022-11-09T09:53:25.658Z,88.23
2022-11-09T09:54:01.384Z,88.23
2022-11-09T09:55:01.361Z,88.34
2022-11-09T09:56:01.331Z,88.44
2022-11-09T09:57:01.592Z,88.64
2022-11-09T09:58:01.329Z,88.64
2022-11-09T09:59:01.368Z,88.34
2022-11-09T10:00:01.310Z,88.34
2022-11-09T10:01:01.369Z,88.29
2022-11-09T10:02:01.313Z,88.44
2022-11-09T10:03:01.972Z,88.49
2022-11-09T10:04:01.321Z,88.49
2022-11-09T10:05:01.249Z,87.99
2022-11-09T10:06:01.268Z,88.29
2022-11-09T10:07:01.311Z,88.20
2022-11-09T10:08:01.233Z,87.99
2022-11-09T10:09:01.336Z,88.20
2022-11-09T10:10:01.913Z,88.20
2022-11-09T10:11:01.169Z,87.85
2022-11-09T10:12:01.613Z,87.24
2022-11-09T10:13:01.203Z,87.24
2022-11-09T10:14:01.153Z,86.73
2022-11-09T10:15:01.162Z,85.93
2022-11-09T10:16:01.124Z,84.47
2022-11-09T10:17:01.156Z,84.67
2022-11-09T10:18:01.129Z,83.76
2022-11-09T10:19:01.086Z,83.15
2022-11-09T10:20:01.176Z,83.86
2022-11-09T10:21:01.066Z,83.76
2022-11-09T10:22:01.141Z,83.76
2022-11-09T10:23:01.169Z,83.55
2022-11-09T10:24:01.085Z,83.61
2022-11-09T10:25:27.417Z,82.90
2022-11-09T10:26:06.895Z,82.40
2022-11-09T10:27:01.334Z,82.10
2022-11-09T10:28:01.055Z,82.30
2022-11-09T10:29:15.553Z,81.90
2022-11-09T10:30:01.123Z,82.40
2022-11-09T10:31:01.068Z,82.81
2022-11-09T10:32:01.174Z,81.99
2022-11-09T10:33:01.017Z,81.25
2022-11-09T10:34:00.990Z,80.84
2022-11-09T10:35:01.111Z,80.34
2022-11-09T10:36:06.888Z,79.93
2022-11-09T10:37:01.025Z,79.93
2022-11-09T10:38:01.185Z,80.13
2022-11-09T10:39:00.918Z,79.22
2022-11-09T10:40:01.412Z,79.53
2022-11-09T10:41:00.881Z,79.19
2022-11-09T10:42:00.939Z,79.59
2022-11-09T10:43:00.913Z,78.68
2022-11-09T10:44:00.911Z,78.88
2022-11-09T10:45:00.833Z,79.29
2022-11-09T10:46:01.046Z,78.48
2022-11-09T10:47:00.950Z,78.08
2022-11-09T10:48:01.680Z,77.94
2022-11-09T10:49:00.903Z,78.14
2022-11-09T10:50:02.496Z,77.67
2022-11-09T10:51:00.806Z,78.17
2022-11-09T10:52:00.802Z,78.58
2022-11-09T10:53:00.790Z,78.28
2022-11-09T10:54:00.802Z,78.48
2022-11-09T10:55:00.736Z,77.77
2022-11-09T10:56:00.810Z,77.97
2022-11-09T10:57:05.964Z,77.73
2022-11-09T10:58:00.715Z,77.84
2022-11-09T10:59:00.809Z,77.73
2022-11-09T11:00:00.685Z,77.84
2022-11-09T11:01:00.681Z,77.43
2022-11-09T11:02:02.395Z,77.64
2022-11-09T11:03:00.830Z,77.73
2022-11-09T11:04:02.440Z,77.67
2022-11-09T11:05:00.640Z,77.87
2022-11-09T11:06:00.741Z,77.67
2022-11-09T11:07:00.669Z,78.28
2022-11-09T11:08:00.681Z,78.28
2022-11-09T11:09:00.677Z,78.48
2022-11-09T11:10:00.580Z,78.28
2022-11-09T11:11:19.515Z,78.68
2022-11-09T11:12:00.583Z,78.99
2022-11-09T11:13:00.571Z,78.78
2022-11-09T11:14:00.656Z,79.19
2022-11-09T11:15:00.554Z,79.29
2022-11-09T11:16:00.561Z,78.38
2022-11-09T11:17:02.488Z,78.38
2022-11-09T11:18:00.640Z,78.58
2022-11-09T11:19:00.569Z,78.38
2022-11-09T11:20:00.560Z,78.17
2022-11-09T11:21:00.518Z,78.08
2022-11-09T11:22:00.515Z,78.24
2022-11-09T11:23:00.800Z,77.03
2022-11-09T11:24:00.525Z,76.82
2022-11-09T11:25:00.456Z,76.72
2022-11-09T11:26:00.423Z,76.42
2022-11-09T11:27:00.427Z,75.92
2022-11-09T11:28:00.531Z,75.81
2022-11-09T11:29:00.460Z,75.10
2022-11-09T11:30:00.482Z,75.01
2022-11-09T11:31:00.399Z,74.60
2022-11-09T11:32:02.270Z,74.60
2022-11-09T11:33:00.635Z,75.01
2022-11-09T11:34:00.423Z,74.80
2022-11-09T11:35:01.678Z,74.90
2022-11-09T11:36:00.365Z,75.10
2022-11-09T11:37:00.378Z,75.10
2022-11-09T11:38:00.457Z,74.70
2022-11-09T11:39:00.379Z,75.24
2022-11-09T11:40:00.300Z,75.75
2022-11-09T11:41:00.324Z,75.61
2022-11-09T11:42:00.291Z,75.51
2022-11-09T11:43:00.315Z,75.51
2022-11-09T11:44:00.430Z,75.61
2022-11-09T11:45:25.567Z,75.31
2022-11-09T11:46:00.309Z,75.01
2022-11-09T11:47:08.121Z,74.50
2022-11-09T11:48:00.343Z,74.16
2022-11-09T11:49:00.238Z,73.96
2022-11-09T11:50:00.240Z,73.96
2022-11-09T11:51:00.251Z,73.96
2022-11-09T11:52:00.192Z,74.06
2022-11-09T11:53:00.192Z,74.46
2022-11-09T11:54:00.184Z,73.96
2022-11-09T11:55:00.189Z,73.25
2022-11-09T11:56:00.298Z,73.05
2022-11-09T11:57:00.131Z,73.39
2022-11-09T11:58:00.146Z,73.69
2022-11-09T11:59:00.170Z,73.69
2022-11-09T12:00:00.128Z,73.69
2022-11-09T12:01:00.392Z,73.99
2022-11-09T12:02:00.376Z,73.79
2022-11-09T12:03:00.114Z,73.49
2022-11-09T12:04:00.107Z,73.28
2022-11-09T12:05:00.163Z,73.79
2022-11-09T12:06:00.366Z,73.99
2022-11-09T12:07:00.146Z,73.79
2022-11-09T12:08:00.034Z,73.49
2022-11-09T12:09:00.041Z,73.49
2022-11-09T12:10:00.042Z,73.59
2022-11-09T12:11:00.039Z,73.69
2022-11-09T12:11:59.987Z,73.19
2022-11-09T12:13:00.028Z,73.28
2022-11-09T12:14:00.096Z,73.19
2022-11-09T12:15:00.246Z,73.22
2022-11-09T12:15:59.971Z,73.52
2022-11-09T12:17:00.026Z,73.83
2022-11-09T12:17:59.925Z,74.43
2022-11-09T12:18:59.951Z,74.43
2022-11-09T12:19:59.942Z,73.63
2022-11-09T12:20:59.928Z,73.52
2022-11-09T12:22:00.039Z,73.93
2022-11-09T12:22:59.873Z,74.03
2022-11-09T12:23:59.976Z,74.33
2022-11-09T12:24:59.880Z,74.33
2022-11-09T12:25:59.878Z,74.23
2022-11-09T12:27:18.306Z,73.69
2022-11-09T12:27:59.827Z,73.79
2022-11-09T12:28:59.900Z,73.90
2022-11-09T12:29:59.815Z,72.88
2022-11-09T12:30:59.862Z,72.88
2022-11-09T12:32:00.122Z,73.08
2022-11-09T12:33:00.655Z,73.19
2022-11-09T12:33:59.800Z,72.88
2022-11-09T12:34:59.770Z,73.08
2022-11-09T12:35:59.870Z,73.39
2022-11-09T12:36:59.726Z,73.39
2022-11-09T12:37:59.754Z,73.39
2022-11-09T12:38:59.785Z,73.49
2022-11-09T12:39:59.731Z,73.08
2022-11-09T12:40:59.707Z,73.39
2022-11-09T12:41:59.728Z,73.19
2022-11-09T12:42:59.707Z,73.28
2022-11-09T12:43:59.691Z,73.22
2022-11-09T12:44:59.725Z,73.28
2022-11-09T12:45:59.655Z,73.43
2022-11-09T12:46:59.645Z,73.43
2022-11-09T12:47:59.650Z,73.83
2022-11-09T12:48:59.669Z,73.43
2022-11-09T12:49:59.695Z,73.93
2022-11-09T12:50:59.615Z,73.93
2022-11-09T12:51:59.620Z,73.72
2022-11-09T12:52:59.627Z,73.86
2022-11-09T12:53:59.591Z,74.16
2022-11-09T12:54:59.566Z,73.96